Time;durP1;ratioP1;P1;durP2;ratioP2;P2;SDS_P1;SDS_P2;PMS_P1;PMS_P2;Temp;Humidity;BMP_temperature;BMP_pressure;BME280_temperature;BME280_humidity;BME280_pressure;Samples;Min_cycle;Max_cycle;Signal;HPM_P1;HPM_P2
2022/04/30 00:01:27;;;;;;;12.40;8.00;;;;;;;;;;4986261;28;20041;-65
2022/04/30 00:03:54;;;;;;;13.63;6.88;;;;;;;;;;4980060;28;20038;-65
2022/04/30 00:06:20;;;;;;;18.13;7.18;;;;;;;;;;4979546;28;20055;-65
2022/04/30 00:08:46;;;;;;;12.60;7.93;;;;;;;;;;4985796;28;20062;-65
2022/04/30 00:11:13;;;;;;;15.35;7.38;;;;;;;;;;4973386;28;20026;-65
2022/04/30 00:13:39;;;;;;;16.60;7.57;;;;;;;;;;4985364;28;20388;-65
2022/04/30 00:16:05;;;;;;;18.73;8.60;;;;;;;;;;4980654;28;20109;-65
2022/04/30 00:18:31;;;;;;;15.52;7.50;;;;;;;;;;4977788;28;20031;-65
2022/04/30 00:20:58;;;;;;;17.70;7.70;;;;;;;;;;4974193;28;20030;-65
2022/04/30 00:23:26;;;;;;;19.63;7.75;;;;;;;;;;4985882;28;20041;-65
2022/04/30 00:25:55;;;;;;;15.27;6.88;;;;;;;;;;4982047;28;20022;-65
2022/04/30 00:28:25;;;;;;;13.95;7.18;;;;;;;;;;4984638;28;20135;-65
2022/04/30 00:30:52;;;;;;;16.45;7.38;;;;;;;;;;4975048;28;20034;-65
2022/04/30 00:33:18;;;;;;;16.45;7.80;;;;;;;;;;4987080;28;20022;-65
2022/04/30 00:35:44;;;;;;;13.82;6.82;;;;;;;;;;4984762;28;20044;-65
2022/04/30 00:38:10;;;;;;;15.73;8.05;;;;;;;;;;4980896;28;20026;-65
2022/04/30 00:40:37;;;;;;;17.38;7.95;;;;;;;;;;4980232;28;20122;-65
2022/04/30 00:43:03;;;;;;;15.50;7.65;;;;;;;;;;4974073;28;20080;-65
2022/04/30 00:45:29;;;;;;;17.45;7.50;;;;;;;;;;4986357;28;20035;-65
2022/04/30 00:47:57;;;;;;;17.27;7.45;;;;;;;;;;4975103;28;20038;-65
2022/04/30 00:50:27;;;;;;;18.17;8.27;;;;;;;;;;4990030;28;20026;-65
2022/04/30 00:52:53;;;;;;;20.75;8.43;;;;;;;;;;4973947;28;20030;-65
2022/04/30 00:55:21;;;;;;;15.43;8.52;;;;;;;;;;4986743;28;21134;-65
2022/04/30 00:57:50;;;;;;;17.15;7.80;;;;;;;;;;4979872;28;20578;-65
2022/04/30 01:00:16;;;;;;;17.40;7.53;;;;;;;;;;4980352;28;20506;-65
2022/04/30 01:02:56;;;;;;;17.38;8.80;;;;;;;;;;4988988;28;20029;-65
2022/04/30 01:05:44;;;;;;;15.20;9.82;;;;;;;;;;4974380;28;20027;-65
2022/04/30 01:08:10;;;;;;;13.85;8.45;;;;;;;;;;4989928;28;20062;-65
2022/04/30 01:10:36;;;;;;;17.27;10.90;;;;;;;;;;4978170;28;20027;-65
2022/04/30 01:13:03;;;;;;;19.15;9.52;;;;;;;;;;4986301;28;20030;-65
2022/04/30 01:15:30;;;;;;;21.13;8.93;;;;;;;;;;4974104;28;20025;-65
2022/04/30 01:17:56;;;;;;;13.50;8.07;;;;;;;;;;4983599;28;20027;-65
2022/04/30 01:20:23;;;;;;;23.58;9.43;;;;;;;;;;4980873;28;20037;-65
2022/04/30 01:23:00;;;;;;;14.38;8.27;;;;;;;;;;4981809;28;20030;-65
2022/04/30 01:25:27;;;;;;;20.70;8.80;;;;;;;;;;4973521;28;20042;-65
2022/04/30 01:27:53;;;;;;;16.60;9.88;;;;;;;;;;4983827;28;20511;-65
2022/04/30 01:30:20;;;;;;;21.90;8.60;;;;;;;;;;4980247;28;20034;-65
2022/04/30 01:38:16;;;;;;;21.42;8.60;;;;;;;;;;4971910;28;20126;-65
2022/04/30 01:40:42;;;;;;;15.27;8.32;;;;;;;;;;4981608;28;20087;-65
2022/04/30 01:43:08;;;;;;;17.35;9.23;;;;;;;;;;4973598;28;20035;-65
2022/04/30 01:45:35;;;;;;;23.25;8.95;;;;;;;;;;4986310;28;20019;-65
2022/04/30 01:48:02;;;;;;;21.33;8.55;;;;;;;;;;4973080;28;20058;-65
2022/04/30 01:50:28;;;;;;;21.52;9.05;;;;;;;;;;4973248;28;20034;-65
2022/04/30 01:52:54;;;;;;;20.88;8.63;;;;;;;;;;4972904;28;20039;-65
2022/04/30 01:55:20;;;;;;;17.60;9.25;;;;;;;;;;4986094;28;20026;-64
2022/04/30 01:57:50;;;;;;;20.88;8.88;;;;;;;;;;4969206;28;20458;-63
2022/04/30 02:00:20;;;;;;;19.85;10.35;;;;;;;;;;4971695;28;20035;-63
2022/04/30 02:02:47;;;;;;;22.90;9.88;;;;;;;;;;4989941;28;20397;-63
2022/04/30 02:05:14;;;;;;;20.15;9.18;;;;;;;;;;4973624;28;20039;-63
2022/04/30 02:07:48;;;;;;;23.27;9.88;;;;;;;;;;4970654;28;20054;-63
2022/04/30 02:10:15;;;;;;;24.85;9.50;;;;;;;;;;4971353;28;20042;-63
2022/04/30 02:12:43;;;;;;;22.17;10.30;;;;;;;;;;4983670;28;20302;-63
2022/04/30 02:15:10;;;;;;;29.60;9.90;;;;;;;;;;4987459;28;20031;-63
2022/04/30 02:17:38;;;;;;;19.75;10.23;;;;;;;;;;4990312;28;20399;-63
2022/04/30 02:22:54;;;;;;;17.38;9.95;;;;;;;;;;4977990;28;20039;-63
2022/04/30 02:25:21;;;;;;;36.28;12.32;;;;;;;;;;4977864;28;20504;-63
2022/04/30 02:27:51;;;;;;;25.60;10.63;;;;;;;;;;4982014;28;20552;-63
2022/04/30 02:30:18;;;;;;;19.45;10.18;;;;;;;;;;4992153;28;20031;-63
2022/04/30 02:32:46;;;;;;;26.13;10.60;;;;;;;;;;4976568;28;20364;-63
2022/04/30 02:35:14;;;;;;;16.63;10.02;;;;;;;;;;4989307;28;20093;-63
2022/04/30 02:37:41;;;;;;;21.83;9.73;;;;;;;;;;4985485;28;20025;-63
2022/04/30 02:40:08;;;;;;;21.50;10.25;;;;;;;;;;4988113;28;20027;-63
2022/04/30 02:42:34;;;;;;;25.02;11.32;;;;;;;;;;4975996;28;20035;-63
2022/04/30 02:45:00;;;;;;;18.55;9.43;;;;;;;;;;4987196;28;20488;-63
2022/04/30 02:47:26;;;;;;;27.25;10.75;;;;;;;;;;4983110;28;20030;-63
2022/04/30 02:49:53;;;;;;;18.65;9.57;;;;;;;;;;4985178;28;20123;-63
2022/04/30 02:52:20;;;;;;;29.15;11.77;;;;;;;;;;4985984;28;20026;-63
2022/04/30 02:54:47;;;;;;;19.92;10.05;;;;;;;;;;4987107;28;20077;-63
2022/04/30 02:57:13;;;;;;;24.35;10.30;;;;;;;;;;4979376;28;20042;-63
2022/04/30 02:59:54;;;;;;;27.45;10.95;;;;;;;;;;4982076;28;20038;-63
2022/04/30 03:02:41;;;;;;;21.17;10.75;;;;;;;;;;4974655;28;20112;-63
2022/04/30 03:05:07;;;;;;;23.95;11.85;;;;;;;;;;4985515;28;20043;-63
2022/04/30 03:07:37;;;;;;;21.13;10.35;;;;;;;;;;4981819;28;20104;-63
2022/04/30 03:10:04;;;;;;;29.02;10.93;;;;;;;;;;4984069;28;20034;-63
2022/04/30 03:12:31;;;;;;;20.42;10.20;;;;;;;;;;4976751;28;20027;-64
2022/04/30 03:14:57;;;;;;;20.08;10.18;;;;;;;;;;4988104;28;20030;-63
2022/04/30 03:22:53;;;;;;;31.85;10.07;;;;;;;;;;4975566;28;20034;-63
2022/04/30 03:25:19;;;;;;;20.60;10.10;;;;;;;;;;4992214;28;20414;-63
2022/04/30 03:27:45;;;;;;;26.67;10.07;;;;;;;;;;4981366;28;20034;-63
2022/04/30 03:30:13;;;;;;;25.92;10.05;;;;;;;;;;4984192;28;20488;-63
2022/04/30 03:32:42;;;;;;;21.35;9.13;;;;;;;;;;4976562;28;20038;-63
2022/04/30 03:35:09;;;;;;;22.80;9.98;;;;;;;;;;4976413;28;20011;-63
2022/04/30 03:37:35;;;;;;;27.20;10.13;;;;;;;;;;4982009;28;20023;-63
2022/04/30 03:40:01;;;;;;;31.75;10.88;;;;;;;;;;4983900;28;20027;-63
2022/04/30 03:42:28;;;;;;;22.35;11.52;;;;;;;;;;4976374;28;20408;-63
2022/04/30 03:44:54;;;;;;;25.17;10.20;;;;;;;;;;4986555;28;20076;-63
2022/04/30 03:47:20;;;;;;;20.30;9.88;;;;;;;;;;4977412;28;20033;-63
2022/04/30 03:49:47;;;;;;;28.17;11.65;;;;;;;;;;4988386;28;20034;-63
2022/04/30 03:52:13;;;;;;;22.83;10.38;;;;;;;;;;4977727;28;20127;-63
2022/04/30 03:54:39;;;;;;;19.15;9.70;;;;;;;;;;4986295;28;20025;-63
2022/04/30 03:57:06;;;;;;;28.17;11.15;;;;;;;;;;4975908;28;20511;-63
2022/04/30 03:59:33;;;;;;;21.65;9.75;;;;;;;;;;4978826;28;20025;-63
2022/04/30 04:02:00;;;;;;;18.10;10.52;;;;;;;;;;4986599;28;20035;-63
2022/04/30 04:04:26;;;;;;;23.73;10.85;;;;;;;;;;4977203;28;20097;-63
2022/04/30 04:06:53;;;;;;;20.02;10.75;;;;;;;;;;4985899;28;20047;-63
2022/04/30 04:09:19;;;;;;;19.20;10.70;;;;;;;;;;4975171;28;20023;-63
2022/04/30 04:11:45;;;;;;;20.75;10.50;;;;;;;;;;4979576;28;20438;-63
2022/04/30 04:19:41;;;;;;;22.02;10.73;;;;;;;;;;4986240;28;20037;-63
2022/04/30 04:22:07;;;;;;;19.80;9.70;;;;;;;;;;4977090;28;20381;-63
2022/04/30 04:27:18;;;;;;;24.13;10.15;;;;;;;;;;4976924;28;20034;-63
2022/04/30 04:29:46;;;;;;;20.88;9.65;;;;;;;;;;4982726;28;20060;-64
2022/04/30 04:32:12;;;;;;;24.35;10.98;;;;;;;;;;4979397;28;20109;-63
2022/04/30 04:34:38;;;;;;;27.73;10.25;;;;;;;;;;4978455;28;20562;-63
2022/04/30 04:37:05;;;;;;;24.25;10.32;;;;;;;;;;4978745;28;20026;-63
2022/04/30 04:39:31;;;;;;;22.85;9.70;;;;;;;;;;4982128;28;20034;-63
2022/04/30 04:41:57;;;;;;;29.15;9.82;;;;;;;;;;4979025;28;20039;-63
2022/04/30 04:44:23;;;;;;;35.55;11.20;;;;;;;;;;4981772;28;20037;-63
2022/04/30 04:46:49;;;;;;;23.55;11.10;;;;;;;;;;4987129;28;20083;-63
2022/04/30 04:49:16;;;;;;;18.23;9.30;;;;;;;;;;4976765;28;20492;-63
2022/04/30 04:51:42;;;;;;;24.38;10.27;;;;;;;;;;4976622;28;20077;-63
2022/04/30 04:54:08;;;;;;;23.55;10.57;;;;;;;;;;4986829;28;20026;-63
2022/04/30 04:56:34;;;;;;;22.13;9.98;;;;;;;;;;4976275;28;20034;-63
2022/04/30 04:59:00;;;;;;;25.02;9.88;;;;;;;;;;4983496;28;20488;-63
2022/04/30 05:01:27;;;;;;;19.00;9.93;;;;;;;;;;4975793;28;20026;-63
2022/04/30 05:03:53;;;;;;;19.38;9.60;;;;;;;;;;4990033;28;20025;-64
2022/04/30 05:06:19;;;;;;;19.42;11.07;;;;;;;;;;4978367;28;20063;-64
2022/04/30 05:08:45;;;;;;;24.40;9.27;;;;;;;;;;4974199;28;20041;-63
2022/04/30 05:11:11;;;;;;;21.67;11.23;;;;;;;;;;4972243;28;20031;-63
2022/04/30 05:13:37;;;;;;;19.60;10.05;;;;;;;;;;4976958;28;20041;-64
2022/04/30 05:16:04;;;;;;;20.92;9.95;;;;;;;;;;4981354;28;20038;-63
2022/04/30 05:18:30;;;;;;;23.63;9.32;;;;;;;;;;4974769;28;20031;-63
2022/04/30 05:20:56;;;;;;;19.70;10.15;;;;;;;;;;4976591;28;20535;-63
2022/04/30 05:23:22;;;;;;;21.63;10.13;;;;;;;;;;4977882;28;20018;-63
2022/04/30 05:25:48;;;;;;;14.65;8.82;;;;;;;;;;4975962;28;20050;-63
2022/04/30 05:28:14;;;;;;;22.25;9.82;;;;;;;;;;4975193;28;20325;-63
2022/04/30 05:30:40;;;;;;;22.80;9.93;;;;;;;;;;4976482;28;20117;-63
2022/04/30 05:33:06;;;;;;;20.70;9.88;;;;;;;;;;4975861;28;20039;-63
2022/04/30 05:35:32;;;;;;;24.35;9.85;;;;;;;;;;4974517;28;20015;-63
2022/04/30 05:37:59;;;;;;;26.02;10.77;;;;;;;;;;4976872;28;20484;-63
2022/04/30 05:40:25;;;;;;;24.38;10.65;;;;;;;;;;4976575;28;20037;-63
2022/04/30 05:42:51;;;;;;;18.38;9.65;;;;;;;;;;4973842;28;20050;-63
2022/04/30 05:45:17;;;;;;;26.45;10.43;;;;;;;;;;4976313;28;20054;-63
2022/04/30 05:47:43;;;;;;;26.85;10.23;;;;;;;;;;4975708;28;20102;-63
2022/04/30 05:50:09;;;;;;;22.05;10.15;;;;;;;;;;4973723;28;20034;-63
2022/04/30 05:52:35;;;;;;;22.02;10.70;;;;;;;;;;4975137;28;20405;-63
2022/04/30 05:55:02;;;;;;;18.65;9.75;;;;;;;;;;4977047;28;20506;-63
2022/04/30 05:57:29;;;;;;;18.38;9.23;;;;;;;;;;4975697;28;20035;-63
2022/04/30 05:59:55;;;;;;;20.00;10.02;;;;;;;;;;4975858;28;20033;-63
2022/04/30 06:02:21;;;;;;;24.92;10.93;;;;;;;;;;4973675;28;20500;-63
2022/04/30 06:04:47;;;;;;;23.60;10.77;;;;;;;;;;4977937;28;20038;-63
2022/04/30 06:07:13;;;;;;;21.25;9.45;;;;;;;;;;4973066;28;20027;-63
2022/04/30 06:09:39;;;;;;;19.00;10.57;;;;;;;;;;4990940;28;20038;-63
2022/04/30 06:12:06;;;;;;;31.85;11.57;;;;;;;;;;4976097;28;20049;-63
2022/04/30 06:14:32;;;;;;;21.08;10.65;;;;;;;;;;4975760;28;20069;-63
2022/04/30 06:16:59;;;;;;;23.08;10.45;;;;;;;;;;4971925;28;20491;-63
2022/04/30 06:19:25;;;;;;;28.92;10.43;;;;;;;;;;4972599;28;20027;-63
2022/04/30 06:21:51;;;;;;;22.60;9.77;;;;;;;;;;4974605;28;20469;-63
2022/04/30 06:24:18;;;;;;;22.80;10.65;;;;;;;;;;4974296;28;20030;-63
2022/04/30 06:26:44;;;;;;;20.42;9.93;;;;;;;;;;4972344;28;20033;-64
2022/04/30 06:29:11;;;;;;;23.25;10.73;;;;;;;;;;4970321;28;20114;-63
2022/04/30 06:31:38;;;;;;;23.15;9.52;;;;;;;;;;4972000;28;20030;-64
2022/04/30 06:34:04;;;;;;;20.83;9.18;;;;;;;;;;4969785;28;20095;-64
2022/04/30 06:36:30;;;;;;;18.75;9.45;;;;;;;;;;4973654;28;20023;-64
2022/04/30 06:38:56;;;;;;;23.00;9.27;;;;;;;;;;4972620;28;20027;-64
2022/04/30 06:41:23;;;;;;;21.05;8.75;;;;;;;;;;4971938;28;20030;-63
2022/04/30 06:43:51;;;;;;;19.50;8.35;;;;;;;;;;4974531;28;20523;-63
2022/04/30 06:46:17;;;;;;;15.68;8.95;;;;;;;;;;4972632;28;20520;-63
2022/04/30 06:48:46;;;;;;;21.95;9.43;;;;;;;;;;4976225;28;20026;-64
2022/04/30 06:51:13;;;;;;;14.35;7.22;;;;;;;;;;4973533;28;20027;-63
2022/04/30 06:59:12;;;;;;;15.73;7.88;;;;;;;;;;4973201;28;20550;-63
2022/04/30 07:02:13;;;;;;;13.95;6.55;;;;;;;;;;4975636;28;20031;-63
2022/04/30 07:04:32;;;;;;;16.40;8.38;;;;;;;;;;4977786;28;20771;-64
2022/04/30 07:06:58;;;;;;;17.70;6.82;;;;;;;;;;4979018;28;20109;-63
2022/04/30 07:09:24;;;;;;;15.57;7.03;;;;;;;;;;4979685;28;20031;-64
2022/04/30 07:11:51;;;;;;;10.52;6.35;;;;;;;;;;4983754;28;20030;-63
2022/04/30 07:14:17;;;;;;;15.82;7.07;;;;;;;;;;4983499;28;20068;-63
2022/04/30 07:16:43;;;;;;;10.63;6.43;;;;;;;;;;4979870;28;20105;-63
2022/04/30 07:19:09;;;;;;;15.52;7.32;;;;;;;;;;4975253;28;20104;-64
2022/04/30 07:21:35;;;;;;;14.77;7.03;;;;;;;;;;4979858;28;20494;-63
2022/04/30 07:24:02;;;;;;;14.02;7.28;;;;;;;;;;4975601;28;20598;-63
2022/04/30 07:26:28;;;;;;;13.43;7.10;;;;;;;;;;4976109;28;20027;-63
2022/04/30 07:28:54;;;;;;;34.83;10.30;;;;;;;;;;4977457;28;20100;-63
2022/04/30 07:31:20;;;;;;;17.13;7.13;;;;;;;;;;4977119;28;20579;-63
2022/04/30 07:33:51;;;;;;;14.38;7.65;;;;;;;;;;4977424;28;20503;-63
2022/04/30 07:36:18;;;;;;;13.65;7.10;;;;;;;;;;4982384;28;20399;-63
2022/04/30 07:38:44;;;;;;;12.02;6.22;;;;;;;;;;4975311;28;20051;-63
2022/04/30 07:41:11;;;;;;;11.95;6.60;;;;;;;;;;4978051;28;20124;-63
2022/04/30 07:43:37;;;;;;;14.90;7.45;;;;;;;;;;4977101;28;20030;-63
2022/04/30 07:46:03;;;;;;;13.27;7.72;;;;;;;;;;4980255;28;20122;-63
2022/04/30 07:48:29;;;;;;;17.02;7.28;;;;;;;;;;4981459;28;20034;-63
2022/04/30 07:50:57;;;;;;;11.48;6.45;;;;;;;;;;4973608;28;20130;-63
2022/04/30 07:53:25;;;;;;;15.45;8.10;;;;;;;;;;4976627;28;20073;-63
2022/04/30 07:55:51;;;;;;;12.88;7.00;;;;;;;;;;4990256;28;20126;-63
2022/04/30 07:58:17;;;;;;;14.48;7.05;;;;;;;;;;4982290;28;20095;-63
2022/04/30 08:00:43;;;;;;;11.75;6.60;;;;;;;;;;4975758;28;20034;-63
2022/04/30 08:03:09;;;;;;;16.02;6.70;;;;;;;;;;4981362;28;20034;-64
2022/04/30 08:05:35;;;;;;;16.30;6.07;;;;;;;;;;4979527;28;20117;-63
2022/04/30 08:08:01;;;;;;;11.45;6.30;;;;;;;;;;4980268;28;20143;-63
2022/04/30 08:10:27;;;;;;;17.05;6.75;;;;;;;;;;4972831;28;20085;-63
2022/04/30 08:12:54;;;;;;;11.52;6.50;;;;;;;;;;4970874;28;20416;-64
2022/04/30 08:15:23;;;;;;;10.98;5.88;;;;;;;;;;4984448;28;20031;-63
2022/04/30 08:17:50;;;;;;;14.10;6.45;;;;;;;;;;4983417;28;20026;-64
2022/04/30 08:20:16;;;;;;;12.52;6.53;;;;;;;;;;4974788;28;20022;-64
2022/04/30 08:22:42;;;;;;;11.60;6.10;;;;;;;;;;4973648;28;20038;-63
2022/04/30 08:25:09;;;;;;;11.55;6.32;;;;;;;;;;4977351;28;20554;-64
2022/04/30 08:27:35;;;;;;;10.10;5.85;;;;;;;;;;4977099;28;20031;-64
2022/04/30 08:30:01;;;;;;;12.95;5.82;;;;;;;;;;4978808;28;20484;-64
2022/04/30 08:32:27;;;;;;;10.20;5.88;;;;;;;;;;4979802;28;20113;-67
2022/04/30 08:34:54;;;;;;;11.27;6.10;;;;;;;;;;4982485;28;20068;-63
2022/04/30 08:37:20;;;;;;;13.15;5.30;;;;;;;;;;4972011;28;20041;-63
2022/04/30 08:39:48;;;;;;;9.38;4.97;;;;;;;;;;4972517;28;20042;-63
2022/04/30 08:42:16;;;;;;;9.63;5.45;;;;;;;;;;4971212;28;20022;-63
2022/04/30 08:44:42;;;;;;;11.90;5.88;;;;;;;;;;4979191;28;20043;-63
2022/04/30 08:47:12;;;;;;;13.32;6.07;;;;;;;;;;4972554;28;20035;-63
2022/04/30 08:49:43;;;;;;;11.57;6.05;;;;;;;;;;4976666;28;20031;-63
2022/04/30 08:52:11;;;;;;;9.27;5.00;;;;;;;;;;4976274;28;20026;-63
2022/04/30 08:54:38;;;;;;;12.88;5.80;;;;;;;;;;4977979;28;20029;-63
2022/04/30 08:57:04;;;;;;;11.73;5.93;;;;;;;;;;4970848;28;20176;-63
2022/04/30 08:59:30;;;;;;;11.25;5.25;;;;;;;;;;4973581;28;20028;-63
2022/04/30 09:01:58;;;;;;;9.23;5.70;;;;;;;;;;4980540;28;20037;-63
2022/04/30 09:04:25;;;;;;;12.02;5.68;;;;;;;;;;4978446;28;20125;-63
2022/04/30 09:06:55;;;;;;;16.50;5.80;;;;;;;;;;4981243;28;20035;-63
2022/04/30 09:09:28;;;;;;;12.65;5.95;;;;;;;;;;4970433;28;20041;-63
2022/04/30 09:11:56;;;;;;;;;;;;;;;;;;4973344;28;20118;-63
2022/04/30 09:14:23;;;;;;;10.23;4.30;;;;;;;;;;4978453;28;19914;-63
2022/04/30 09:16:51;;;;;;;9.52;4.53;;;;;;;;;;4975761;28;20025;-63
2022/04/30 09:19:17;;;;;;;16.20;5.53;;;;;;;;;;4978646;28;20409;-63
2022/04/30 09:21:49;;;;;;;9.35;4.75;;;;;;;;;;4980568;28;20038;-63
2022/04/30 09:24:15;;;;;;;9.23;5.20;;;;;;;;;;4979136;28;20027;-63
2022/04/30 09:26:42;;;;;;;7.10;5.03;;;;;;;;;;4974395;28;20516;-63
2022/04/30 09:29:19;;;;;;;12.40;5.40;;;;;;;;;;4977288;28;20126;-63
2022/04/30 09:31:52;;;;;;;12.32;5.82;;;;;;;;;;4976888;28;20043;-63
2022/04/30 09:39:49;;;;;;;10.00;5.18;;;;;;;;;;4973870;28;20060;-62
2022/04/30 09:42:15;;;;;;;9.57;5.50;;;;;;;;;;4972093;28;20072;-63
2022/04/30 09:44:41;;;;;;;12.35;4.88;;;;;;;;;;4971712;28;20054;-63
2022/04/30 09:47:08;;;;;;;14.93;6.03;;;;;;;;;;4977654;28;20042;-62
2022/04/30 09:55:08;;;;;;;9.45;6.00;;;;;;;;;;4972997;28;20022;-63
2022/04/30 09:57:38;;;;;;;15.60;5.68;;;;;;;;;;4978065;28;20562;-63
2022/04/30 10:00:08;;;;;;;14.68;5.80;;;;;;;;;;4979112;28;20030;-63
2022/04/30 10:02:39;;;;;;;9.80;5.45;;;;;;;;;;4981045;28;20529;-61
2022/04/30 10:05:05;;;;;;;17.83;6.70;;;;;;;;;;4974585;28;20122;-61
2022/04/30 10:07:33;;;;;;;10.63;6.13;;;;;;;;;;4981445;28;20522;-63
2022/04/30 10:10:25;;;;;;;9.38;5.53;;;;;;;;;;4973636;28;20027;-62
2022/04/30 10:13:12;;;;;;;12.17;5.67;;;;;;;;;;4985095;28;20047;-62
2022/04/30 10:15:42;;;;;;;11.75;5.35;;;;;;;;;;4983187;28;20042;-62
2022/04/30 10:18:10;;;;;;;12.30;5.40;;;;;;;;;;4973919;28;20058;-63
2022/04/30 10:20:36;;;;;;;20.95;6.35;;;;;;;;;;4972393;28;20031;-63
2022/04/30 10:23:03;;;;;;;10.35;5.97;;;;;;;;;;4984058;28;20176;-63
2022/04/30 10:25:36;;;;;;;11.20;6.15;;;;;;;;;;4979134;28;20038;-63
2022/04/30 10:28:05;;;;;;;10.73;5.85;;;;;;;;;;4980924;28;20054;-63
2022/04/30 10:30:33;;;;;;;15.98;6.60;;;;;;;;;;4971067;28;20039;-63
2022/04/30 10:33:03;;;;;;;16.92;7.50;;;;;;;;;;4982408;28;20484;-63
2022/04/30 10:35:30;;;;;;;16.83;6.68;;;;;;;;;;4978540;28;20515;-63
2022/04/30 10:38:06;;;;;;;10.95;5.93;;;;;;;;;;4976213;28;20026;-63
2022/04/30 10:40:47;;;;;;;11.38;6.85;;;;;;;;;;4979271;28;20721;-63
2022/04/30 10:43:14;;;;;;;13.75;6.53;;;;;;;;;;4987846;28;20165;-63
2022/04/30 10:45:40;;;;;;;13.20;6.80;;;;;;;;;;4974240;28;20038;-63
2022/04/30 10:48:07;;;;;;;17.55;7.55;;;;;;;;;;4974199;28;20480;-63
2022/04/30 10:50:33;;;;;;;11.55;6.40;;;;;;;;;;4986824;28;20031;-62
2022/04/30 10:53:00;;;;;;;16.55;7.18;;;;;;;;;;4983229;28;20037;-63
2022/04/30 10:55:27;;;;;;;12.70;6.40;;;;;;;;;;4988095;28;20023;-63
2022/04/30 10:57:54;;;;;;;14.82;6.78;;;;;;;;;;4985368;28;20042;-61
2022/04/30 11:00:21;;;;;;;10.27;6.57;;;;;;;;;;4996230;28;20022;-63
2022/04/30 11:02:48;;;;;;;10.80;6.30;;;;;;;;;;4982751;28;20069;-68
2022/04/30 11:05:24;;;;;;;14.98;7.00;;;;;;;;;;4987938;28;20031;-63
2022/04/30 11:07:50;;;;;;;14.05;7.82;;;;;;;;;;4988691;28;20520;-63
2022/04/30 11:10:16;;;;;;;13.13;6.03;;;;;;;;;;4981542;28;20034;-64
2022/04/30 11:12:44;;;;;;;12.20;6.15;;;;;;;;;;4976721;28;20049;-63
2022/04/30 11:15:14;;;;;;;18.63;6.68;;;;;;;;;;4982732;28;20106;-63
2022/04/30 11:17:44;;;;;;;11.90;5.53;;;;;;;;;;4976162;28;20027;-62
2022/04/30 11:20:10;;;;;;;13.50;5.85;;;;;;;;;;4989340;28;20075;-62
2022/04/30 11:22:36;;;;;;;12.07;5.90;;;;;;;;;;4991564;28;20031;-62
2022/04/30 11:25:03;;;;;;;14.50;6.32;;;;;;;;;;4975823;28;20030;-62
2022/04/30 11:27:32;;;;;;;10.77;6.68;;;;;;;;;;4975936;28;20078;-63
2022/04/30 11:29:58;;;;;;;12.68;5.40;;;;;;;;;;4981866;28;20026;-63
2022/04/30 11:32:29;;;;;;;15.95;6.30;;;;;;;;;;4980955;28;20038;-63
2022/04/30 11:35:00;;;;;;;8.90;5.05;;;;;;;;;;4974831;28;20481;-63
2022/04/30 11:37:26;;;;;;;13.57;5.63;;;;;;;;;;4973330;28;20023;-63
2022/04/30 11:39:52;;;;;;;12.00;5.43;;;;;;;;;;4982235;28;20023;-63
2022/04/30 11:42:24;;;;;;;13.00;5.78;;;;;;;;;;4981266;28;20023;-63
2022/04/30 11:44:53;;;;;;;11.23;5.43;;;;;;;;;;4999854;28;20025;-63
2022/04/30 11:47:21;;;;;;;12.45;6.28;;;;;;;;;;4976854;28;20064;-63
2022/04/30 11:49:47;;;;;;;15.07;5.40;;;;;;;;;;4980507;28;20732;-63
2022/04/30 11:52:14;;;;;;;12.75;6.32;;;;;;;;;;4988955;28;20065;-63
2022/04/30 11:54:41;;;;;;;12.32;5.60;;;;;;;;;;4985620;28;20392;-63
2022/04/30 11:57:14;;;;;;;12.57;7.25;;;;;;;;;;4975491;28;20054;-63
2022/04/30 11:59:41;;;;;;;17.60;6.80;;;;;;;;;;4984904;28;20041;-63
2022/04/30 12:02:12;;;;;;;12.02;6.68;;;;;;;;;;4991328;28;20030;-63
2022/04/30 12:04:41;;;;;;;12.60;7.25;;;;;;;;;;4988404;28;20026;-63
2022/04/30 12:07:07;;;;;;;12.60;7.07;;;;;;;;;;4973277;28;20042;-63
2022/04/30 12:09:37;;;;;;;19.85;7.35;;;;;;;;;;4983246;28;20035;-63
2022/04/30 12:12:03;;;;;;;14.50;7.53;;;;;;;;;;4975629;28;20076;-63
2022/04/30 12:14:29;;;;;;;12.38;7.47;;;;;;;;;;4984191;28;20465;-63
2022/04/30 12:16:57;;;;;;;13.50;7.30;;;;;;;;;;4978895;28;20019;-63
2022/04/30 12:25:07;;;;;;;22.95;7.88;;;;;;;;;;4986793;28;20472;-63
2022/04/30 12:27:33;;;;;;;15.85;7.60;;;;;;;;;;4980157;28;20023;-63
2022/04/30 12:30:00;;;;;;;18.05;8.30;;;;;;;;;;4977532;28;20027;-63
2022/04/30 12:32:27;;;;;;;14.05;7.63;;;;;;;;;;4974309;28;20042;-63
2022/04/30 12:34:53;;;;;;;18.95;7.20;;;;;;;;;;4974995;28;20033;-63
2022/04/30 12:37:29;;;;;;;16.50;7.40;;;;;;;;;;4972445;28;20019;-63
2022/04/30 12:39:55;;;;;;;16.63;7.70;;;;;;;;;;4980034;28;20022;-63
2022/04/30 12:42:21;;;;;;;15.88;7.85;;;;;;;;;;4979817;28;20069;-63
2022/04/30 12:44:47;;;;;;;20.30;8.82;;;;;;;;;;4972321;28;20092;-63
2022/04/30 12:47:14;;;;;;;18.10;8.35;;;;;;;;;;4987543;28;20026;-63
2022/04/30 12:49:40;;;;;;;19.05;8.27;;;;;;;;;;4984995;28;20042;-63
2022/04/30 12:52:07;;;;;;;15.38;8.02;;;;;;;;;;4980954;28;20033;-63
2022/04/30 12:54:33;;;;;;;17.25;7.93;;;;;;;;;;4978361;28;20033;-63
2022/04/30 12:57:00;;;;;;;22.98;8.57;;;;;;;;;;4986224;28;20508;-63
2022/04/30 12:59:26;;;;;;;24.75;9.52;;;;;;;;;;4975358;28;20102;-63
2022/04/30 13:01:52;;;;;;;20.92;9.15;;;;;;;;;;4982799;28;20043;-63
2022/04/30 13:04:19;;;;;;;11.48;7.20;;;;;;;;;;4980833;28;20034;-63
2022/04/30 13:06:45;;;;;;;14.70;7.22;;;;;;;;;;4977044;28;20022;-62
2022/04/30 13:14:41;;;;;;;19.70;6.60;;;;;;;;;;4971475;28;20039;-63
2022/04/30 13:17:07;;;;;;;18.85;6.78;;;;;;;;;;4980542;28;20058;-63
2022/04/30 13:19:33;;;;;;;17.27;8.02;;;;;;;;;;4986036;28;20088;-63
2022/04/30 13:22:01;;;;;;;18.90;7.93;;;;;;;;;;4979317;28;20388;-63
2022/04/30 13:24:27;;;;;;;17.73;7.88;;;;;;;;;;4979354;28;20104;-63
2022/04/30 13:26:54;;;;;;;15.32;8.07;;;;;;;;;;4986339;28;20461;-63
2022/04/30 13:29:20;;;;;;;18.50;8.30;;;;;;;;;;4974560;28;20118;-63
2022/04/30 13:31:46;;;;;;;17.38;8.63;;;;;;;;;;4987198;28;20026;-63
2022/04/30 13:34:12;;;;;;;22.02;8.23;;;;;;;;;;4979177;28;20454;-63
2022/04/30 13:36:41;;;;;;;17.88;7.03;;;;;;;;;;4971598;28;20152;-63
2022/04/30 13:39:07;;;;;;;21.10;7.40;;;;;;;;;;4986549;28;20038;-63
2022/04/30 13:41:34;;;;;;;15.68;9.38;;;;;;;;;;4973347;28;20030;-63
2022/04/30 13:44:00;;;;;;;21.50;7.90;;;;;;;;;;4974785;28;20031;-63
2022/04/30 13:46:26;;;;;;;14.68;7.72;;;;;;;;;;4970992;28;20025;-63
2022/04/30 13:48:52;;;;;;;25.42;8.38;;;;;;;;;;4970473;28;20072;-63
2022/04/30 13:51:18;;;;;;;19.55;8.45;;;;;;;;;;4974616;28;20027;-63
2022/04/30 13:53:45;;;;;;;18.20;8.65;;;;;;;;;;4989365;28;20423;-63
2022/04/30 13:56:11;;;;;;;22.02;8.27;;;;;;;;;;4983593;28;20027;-63
2022/04/30 13:58:38;;;;;;;24.48;9.07;;;;;;;;;;4971054;28;20085;-62
2022/04/30 14:01:04;;;;;;;31.02;9.57;;;;;;;;;;4984916;28;20018;-63
2022/04/30 14:03:30;;;;;;;26.63;10.18;;;;;;;;;;4973575;28;20531;-63
2022/04/30 14:05:59;;;;;;;18.73;9.57;;;;;;;;;;4979621;28;20019;-63
2022/04/30 14:08:25;;;;;;;26.75;11.13;;;;;;;;;;5003270;28;20039;-63
2022/04/30 14:10:51;;;;;;;19.58;9.70;;;;;;;;;;4987642;28;20379;-63
2022/04/30 14:16:02;;;;;;;23.48;9.23;;;;;;;;;;4986919;28;20046;-63
2022/04/30 14:18:29;;;;;;;22.92;9.52;;;;;;;;;;4984344;28;20033;-63
2022/04/30 14:20:55;;;;;;;19.42;9.48;;;;;;;;;;4986108;28;20068;-63
2022/04/30 14:23:22;;;;;;;27.08;9.40;;;;;;;;;;4977217;28;20042;-63
2022/04/30 14:25:49;;;;;;;24.75;10.15;;;;;;;;;;4986297;28;20135;-63
2022/04/30 14:28:19;;;;;;;29.13;10.32;;;;;;;;;;4986797;28;20164;-63
2022/04/30 14:30:45;;;;;;;34.88;10.68;;;;;;;;;;4983566;28;20042;-63
2022/04/30 14:33:12;;;;;;;26.88;10.48;;;;;;;;;;4989702;28;20117;-63
2022/04/30 14:35:39;;;;;;;22.17;10.07;;;;;;;;;;4981089;28;20034;-63
2022/04/30 14:38:08;;;;;;;30.58;12.20;;;;;;;;;;4983619;28;20021;-63
2022/04/30 14:40:39;;;;;;;27.52;13.13;;;;;;;;;;4984428;28;20113;-63
2022/04/30 14:43:07;;;;;;;26.88;13.10;;;;;;;;;;4981572;28;20035;-63
2022/04/30 14:45:33;;;;;;;28.83;13.93;;;;;;;;;;4987876;28;20033;-63
2022/04/30 14:47:59;;;;;;;40.90;15.68;;;;;;;;;;4986322;28;20061;-63
2022/04/30 14:50:25;;;;;;;29.08;15.30;;;;;;;;;;4980477;28;20031;-63
2022/04/30 14:52:52;;;;;;;30.80;14.85;;;;;;;;;;4985987;28;20446;-63
2022/04/30 14:55:18;;;;;;;28.45;14.07;;;;;;;;;;4974100;28;20665;-63
2022/04/30 14:57:44;;;;;;;26.77;13.88;;;;;;;;;;4990680;28;20805;-63
2022/04/30 15:00:11;;;;;;;30.25;15.05;;;;;;;;;;4986307;28;20426;-63
2022/04/30 15:02:37;;;;;;;31.92;14.25;;;;;;;;;;4979487;28;20449;-63
2022/04/30 15:05:03;;;;;;;27.50;14.18;;;;;;;;;;4976502;28;20066;-63
2022/04/30 15:07:29;;;;;;;32.72;14.40;;;;;;;;;;4974221;28;20042;-64
2022/04/30 15:09:56;;;;;;;30.67;14.38;;;;;;;;;;4981326;28;20399;-63
2022/04/30 15:12:22;;;;;;;33.53;16.23;;;;;;;;;;5019833;28;20126;-63
2022/04/30 15:14:48;;;;;;;35.22;14.77;;;;;;;;;;5028215;28;20023;-64
2022/04/30 15:17:14;;;;;;;33.25;15.20;;;;;;;;;;5031238;28;20028;-63
2022/04/30 15:19:40;;;;;;;31.58;15.88;;;;;;;;;;4980390;28;20358;-64